Ridgewood, New York
Current Conditions -  °F | °C
As of 1:51 AM on Tuesday 21 Oct 2014 (Local Time) from KLGA Reporting Station
Clear Clear  
Wind Chill: 14°   Ceiling: Unl
Heat Index: 14°   Visibility: 10mi
Dew Point:   Wind: 3mph
Humidity: 62%   Direction: 200°SSW
Pressure: 29.94"   Gusts: NA
Location:  40.7°N, 73.9°W
Report Text: KLGA 210551Z 20003KT 10SM CLR 14/07 A2994 RMK AO2 SLP138 T01390067 10144 20133 58012
Loading
Personal Weather Stations






























Interactive Weather Map
Tropical Storm Tracking
New forecast layout! Learn more

10-Day Weather Forecast

Advertisements
Track Severe Weather on mobile